sensor_id;sensor_type;location;lat;lon;timestamp;P1;durP1;ratioP1;P2;durP2;ratioP2
14231;SDS011;7200;52.194;9.900;2022-07-09T00:00:50;2.27;;;1.80;;
14231;SDS011;7200;52.194;9.900;2022-07-09T00:03:16;1.90;;;1.77;;
14231;SDS011;7200;52.194;9.900;2022-07-09T00:05:41;2.53;;;2.33;;
14231;SDS011;7200;52.194;9.900;2022-07-09T00:08:06;2.70;;;2.00;;
14231;SDS011;7200;52.194;9.900;2022-07-09T00:10:31;4.03;;;2.03;;
14231;SDS011;7200;52.194;9.900;2022-07-09T00:12:57;2.83;;;2.10;;
14231;SDS011;7200;52.194;9.900;2022-07-09T00:15:22;2.63;;;2.10;;
14231;SDS011;7200;52.194;9.900;2022-07-09T00:17:49;2.37;;;2.00;;
14231;SDS011;7200;52.194;9.900;2022-07-09T00:20:14;2.23;;;1.97;;
14231;SDS011;7200;52.194;9.900;2022-07-09T00:22:40;5.73;;;2.20;;
14231;SDS011;7200;52.194;9.900;2022-07-09T00:25:05;3.20;;;2.40;;
14231;SDS011;7200;52.194;9.900;2022-07-09T00:27:31;4.57;;;3.13;;
14231;SDS011;7200;52.194;9.900;2022-07-09T00:29:56;2.27;;;2.00;;
14231;SDS011;7200;52.194;9.900;2022-07-09T00:32:22;3.43;;;2.00;;
14231;SDS011;7200;52.194;9.900;2022-07-09T00:34:47;6.50;;;3.20;;
14231;SDS011;7200;52.194;9.900;2022-07-09T00:37:12;2.93;;;2.23;;
14231;SDS011;7200;52.194;9.900;2022-07-09T00:39:38;2.53;;;2.27;;
14231;SDS011;7200;52.194;9.900;2022-07-09T00:42:04;2.87;;;2.27;;
14231;SDS011;7200;52.194;9.900;2022-07-09T00:44:30;2.60;;;2.10;;
14231;SDS011;7200;52.194;9.900;2022-07-09T00:46:56;3.00;;;2.80;;
14231;SDS011;7200;52.194;9.900;2022-07-09T00:49:21;2.97;;;1.90;;
14231;SDS011;7200;52.194;9.900;2022-07-09T00:51:47;5.23;;;2.37;;
14231;SDS011;7200;52.194;9.900;2022-07-09T00:54:12;3.23;;;2.20;;
14231;SDS011;7200;52.194;9.900;2022-07-09T00:56:38;2.90;;;2.30;;
14231;SDS011;7200;52.194;9.900;2022-07-09T00:59:04;3.33;;;2.40;;
14231;SDS011;7200;52.194;9.900;2022-07-09T01:01:35;4.10;;;2.40;;
14231;SDS011;7200;52.194;9.900;2022-07-09T01:04:01;2.30;;;2.10;;
14231;SDS011;7200;52.194;9.900;2022-07-09T01:06:26;2.87;;;2.60;;
14231;SDS011;7200;52.194;9.900;2022-07-09T01:08:51;3.50;;;2.77;;
14231;SDS011;7200;52.194;9.900;2022-07-09T01:11:17;5.97;;;2.60;;
14231;SDS011;7200;52.194;9.900;2022-07-09T01:13:42;2.73;;;2.23;;
14231;SDS011;7200;52.194;9.900;2022-07-09T01:16:11;2.73;;;2.20;;
14231;SDS011;7200;52.194;9.900;2022-07-09T01:18:38;4.80;;;2.70;;
14231;SDS011;7200;52.194;9.900;2022-07-09T01:21:03;4.90;;;2.60;;
14231;SDS011;7200;52.194;9.900;2022-07-09T01:23:28;6.17;;;2.67;;
14231;SDS011;7200;52.194;9.900;2022-07-09T01:25:54;4.70;;;3.10;;
14231;SDS011;7200;52.194;9.900;2022-07-09T01:28:20;3.90;;;2.57;;
14231;SDS011;7200;52.194;9.900;2022-07-09T01:30:46;4.80;;;2.90;;
14231;SDS011;7200;52.194;9.900;2022-07-09T01:33:11;2.90;;;2.70;;
14231;SDS011;7200;52.194;9.900;2022-07-09T01:35:37;3.43;;;2.70;;
14231;SDS011;7200;52.194;9.900;2022-07-09T01:38:03;2.93;;;2.67;;
14231;SDS011;7200;52.194;9.900;2022-07-09T01:40:28;3.10;;;2.80;;
14231;SDS011;7200;52.194;9.900;2022-07-09T01:42:54;3.63;;;3.33;;
14231;SDS011;7200;52.194;9.900;2022-07-09T01:45:19;3.80;;;3.50;;
14231;SDS011;7200;52.194;9.900;2022-07-09T01:47:44;7.33;;;3.30;;
14231;SDS011;7200;52.194;9.900;2022-07-09T01:50:10;3.93;;;3.60;;
14231;SDS011;7200;52.194;9.900;2022-07-09T01:52:36;3.70;;;3.27;;
14231;SDS011;7200;52.194;9.900;2022-07-09T01:55:03;3.70;;;3.40;;
14231;SDS011;7200;52.194;9.900;2022-07-09T01:57:28;4.70;;;3.40;;
14231;SDS011;7200;52.194;9.900;2022-07-09T01:59:54;5.00;;;3.30;;
14231;SDS011;7200;52.194;9.900;2022-07-09T02:02:19;3.10;;;2.90;;
14231;SDS011;7200;52.194;9.900;2022-07-09T02:04:46;4.70;;;3.50;;
14231;SDS011;7200;52.194;9.900;2022-07-09T02:07:13;3.87;;;3.17;;
14231;SDS011;7200;52.194;9.900;2022-07-09T02:09:39;3.53;;;3.27;;
14231;SDS011;7200;52.194;9.900;2022-07-09T02:12:05;4.33;;;3.80;;
14231;SDS011;7200;52.194;9.900;2022-07-09T02:14:31;4.60;;;3.77;;
14231;SDS011;7200;52.194;9.900;2022-07-09T02:16:56;3.63;;;3.33;;
14231;SDS011;7200;52.194;9.900;2022-07-09T02:19:22;4.43;;;4.03;;
14231;SDS011;7200;52.194;9.900;2022-07-09T02:21:47;4.33;;;3.87;;
14231;SDS011;7200;52.194;9.900;2022-07-09T02:24:13;4.00;;;3.47;;
14231;SDS011;7200;52.194;9.900;2022-07-09T02:26:39;5.07;;;4.27;;
14231;SDS011;7200;52.194;9.900;2022-07-09T02:29:04;4.13;;;3.67;;
14231;SDS011;7200;52.194;9.900;2022-07-09T02:31:29;4.27;;;3.80;;
14231;SDS011;7200;52.194;9.900;2022-07-09T02:33:55;4.67;;;3.80;;
14231;SDS011;7200;52.194;9.900;2022-07-09T02:36:21;3.83;;;3.53;;
14231;SDS011;7200;52.194;9.900;2022-07-09T02:38:47;3.63;;;3.33;;
14231;SDS011;7200;52.194;9.900;2022-07-09T02:41:13;4.20;;;3.40;;
14231;SDS011;7200;52.194;9.900;2022-07-09T02:43:38;4.03;;;3.67;;
14231;SDS011;7200;52.194;9.900;2022-07-09T02:46:04;4.53;;;4.07;;
14231;SDS011;7200;52.194;9.900;2022-07-09T02:48:29;5.80;;;3.30;;
14231;SDS011;7200;52.194;9.900;2022-07-09T02:50:55;3.80;;;3.40;;
14231;SDS011;7200;52.194;9.900;2022-07-09T02:53:21;4.87;;;3.07;;
14231;SDS011;7200;52.194;9.900;2022-07-09T02:55:46;5.57;;;3.17;;
14231;SDS011;7200;52.194;9.900;2022-07-09T02:58:12;4.00;;;3.10;;
14231;SDS011;7200;52.194;9.900;2022-07-09T03:00:38;3.50;;;3.20;;
14231;SDS011;7200;52.194;9.900;2022-07-09T03:03:06;6.20;;;3.80;;
14231;SDS011;7200;52.194;9.900;2022-07-09T03:05:32;6.93;;;4.07;;
14231;SDS011;7200;52.194;9.900;2022-07-09T03:07:58;4.00;;;3.70;;
14231;SDS011;7200;52.194;9.900;2022-07-09T03:10:24;4.87;;;4.27;;
14231;SDS011;7200;52.194;9.900;2022-07-09T03:12:49;4.60;;;4.00;;
14231;SDS011;7200;52.194;9.900;2022-07-09T03:15:15;5.00;;;4.20;;
14231;SDS011;7200;52.194;9.900;2022-07-09T03:17:42;4.47;;;4.07;;
14231;SDS011;7200;52.194;9.900;2022-07-09T03:20:11;6.87;;;4.23;;
14231;SDS011;7200;52.194;9.900;2022-07-09T03:22:37;4.80;;;4.40;;
14231;SDS011;7200;52.194;9.900;2022-07-09T03:25:03;5.03;;;4.53;;
14231;SDS011;7200;52.194;9.900;2022-07-09T03:27:29;6.37;;;5.47;;
14231;SDS011;7200;52.194;9.900;2022-07-09T03:29:54;6.50;;;4.67;;
14231;SDS011;7200;52.194;9.900;2022-07-09T03:32:19;5.30;;;4.80;;
14231;SDS011;7200;52.194;9.900;2022-07-09T03:34:45;7.10;;;4.57;;
14231;SDS011;7200;52.194;9.900;2022-07-09T03:37:10;6.13;;;4.53;;
14231;SDS011;7200;52.194;9.900;2022-07-09T03:39:36;5.63;;;4.63;;
14231;SDS011;7200;52.194;9.900;2022-07-09T03:42:01;5.17;;;4.77;;
14231;SDS011;7200;52.194;9.900;2022-07-09T03:44:26;4.70;;;4.30;;
14231;SDS011;7200;52.194;9.900;2022-07-09T03:46:52;7.10;;;4.87;;
14231;SDS011;7200;52.194;9.900;2022-07-09T03:49:17;5.53;;;5.00;;
14231;SDS011;7200;52.194;9.900;2022-07-09T03:51:43;5.60;;;4.83;;
14231;SDS011;7200;52.194;9.900;2022-07-09T03:54:09;6.40;;;4.83;;
14231;SDS011;7200;52.194;9.900;2022-07-09T03:56:34;5.30;;;4.80;;
14231;SDS011;7200;52.194;9.900;2022-07-09T03:59:00;5.33;;;4.77;;
14231;SDS011;7200;52.194;9.900;2022-07-09T04:01:25;6.47;;;4.93;;
14231;SDS011;7200;52.194;9.900;2022-07-09T04:03:50;5.90;;;5.40;;
14231;SDS011;7200;52.194;9.900;2022-07-09T04:06:16;5.30;;;4.63;;
14231;SDS011;7200;52.194;9.900;2022-07-09T04:08:41;4.63;;;4.17;;
14231;SDS011;7200;52.194;9.900;2022-07-09T04:11:06;5.10;;;4.60;;
14231;SDS011;7200;52.194;9.900;2022-07-09T04:13:32;6.40;;;4.53;;
14231;SDS011;7200;52.194;9.900;2022-07-09T04:15:57;7.13;;;4.67;;
14231;SDS011;7200;52.194;9.900;2022-07-09T04:18:23;5.47;;;4.43;;
14231;SDS011;7200;52.194;9.900;2022-07-09T04:20:48;5.23;;;4.50;;
14231;SDS011;7200;52.194;9.900;2022-07-09T04:23:13;6.27;;;4.83;;
14231;SDS011;7200;52.194;9.900;2022-07-09T04:25:39;6.47;;;4.93;;
14231;SDS011;7200;52.194;9.900;2022-07-09T04:28:04;6.03;;;4.17;;
14231;SDS011;7200;52.194;9.900;2022-07-09T04:30:30;8.10;;;5.20;;
14231;SDS011;7200;52.194;9.900;2022-07-09T04:32:55;7.67;;;4.83;;
14231;SDS011;7200;52.194;9.900;2022-07-09T04:35:21;10.40;;;6.53;;
14231;SDS011;7200;52.194;9.900;2022-07-09T04:37:46;6.83;;;5.23;;
14231;SDS011;7200;52.194;9.900;2022-07-09T04:40:11;7.40;;;5.87;;
14231;SDS011;7200;52.194;9.900;2022-07-09T04:42:37;9.00;;;5.17;;
14231;SDS011;7200;52.194;9.900;2022-07-09T04:45:02;6.83;;;5.57;;
14231;SDS011;7200;52.194;9.900;2022-07-09T04:47:28;6.70;;;5.70;;
14231;SDS011;7200;52.194;9.900;2022-07-09T04:49:53;10.50;;;5.13;;
14231;SDS011;7200;52.194;9.900;2022-07-09T04:52:19;10.03;;;5.37;;
14231;SDS011;7200;52.194;9.900;2022-07-09T04:54:45;9.03;;;5.43;;
14231;SDS011;7200;52.194;9.900;2022-07-09T04:57:11;7.80;;;5.47;;
14231;SDS011;7200;52.194;9.900;2022-07-09T04:59:36;7.87;;;5.77;;
14231;SDS011;7200;52.194;9.900;2022-07-09T05:02:02;9.17;;;6.23;;
14231;SDS011;7200;52.194;9.900;2022-07-09T05:04:27;8.77;;;5.80;;
14231;SDS011;7200;52.194;9.900;2022-07-09T05:06:53;8.60;;;6.00;;
14231;SDS011;7200;52.194;9.900;2022-07-09T05:09:18;6.07;;;5.37;;
14231;SDS011;7200;52.194;9.900;2022-07-09T05:11:44;6.37;;;5.67;;
14231;SDS011;7200;52.194;9.900;2022-07-09T05:14:09;6.23;;;5.50;;
14231;SDS011;7200;52.194;9.900;2022-07-09T05:16:35;6.00;;;4.97;;
14231;SDS011;7200;52.194;9.900;2022-07-09T05:19:00;6.30;;;5.77;;
14231;SDS011;7200;52.194;9.900;2022-07-09T05:21:25;8.77;;;6.47;;
14231;SDS011;7200;52.194;9.900;2022-07-09T05:23:51;6.00;;;5.40;;
14231;SDS011;7200;52.194;9.900;2022-07-09T05:26:16;6.87;;;5.60;;
14231;SDS011;7200;52.194;9.900;2022-07-09T05:28:41;6.00;;;5.40;;
14231;SDS011;7200;52.194;9.900;2022-07-09T05:31:07;7.03;;;5.67;;
14231;SDS011;7200;52.194;9.900;2022-07-09T05:33:32;5.87;;;5.03;;
14231;SDS011;7200;52.194;9.900;2022-07-09T05:35:57;5.87;;;5.37;;
14231;SDS011;7200;52.194;9.900;2022-07-09T05:38:23;5.63;;;5.13;;
14231;SDS011;7200;52.194;9.900;2022-07-09T05:40:48;7.77;;;5.43;;
14231;SDS011;7200;52.194;9.900;2022-07-09T05:43:14;5.60;;;5.10;;
14231;SDS011;7200;52.194;9.900;2022-07-09T05:45:39;6.67;;;5.30;;
14231;SDS011;7200;52.194;9.900;2022-07-09T05:48:04;5.10;;;4.20;;
14231;SDS011;7200;52.194;9.900;2022-07-09T05:50:30;5.90;;;4.87;;
14231;SDS011;7200;52.194;9.900;2022-07-09T05:52:55;8.10;;;4.57;;
14231;SDS011;7200;52.194;9.900;2022-07-09T05:55:21;4.60;;;3.77;;
14231;SDS011;7200;52.194;9.900;2022-07-09T05:57:46;10.77;;;4.13;;
14231;SDS011;7200;52.194;9.900;2022-07-09T06:00:12;4.00;;;3.60;;
14231;SDS011;7200;52.194;9.900;2022-07-09T06:02:37;7.00;;;3.63;;
14231;SDS011;7200;52.194;9.900;2022-07-09T06:05:03;5.23;;;3.90;;
14231;SDS011;7200;52.194;9.900;2022-07-09T06:07:28;4.07;;;3.30;;
14231;SDS011;7200;52.194;9.900;2022-07-09T06:09:53;5.17;;;3.90;;
14231;SDS011;7200;52.194;9.900;2022-07-09T06:12:19;8.13;;;4.90;;
14231;SDS011;7200;52.194;9.900;2022-07-09T06:14:44;4.50;;;4.10;;
14231;SDS011;7200;52.194;9.900;2022-07-09T06:17:10;4.73;;;4.20;;
14231;SDS011;7200;52.194;9.900;2022-07-09T06:19:35;5.10;;;3.80;;
14231;SDS011;7200;52.194;9.900;2022-07-09T06:22:01;3.90;;;3.50;;
14231;SDS011;7200;52.194;9.900;2022-07-09T06:24:27;3.77;;;3.47;;
14231;SDS011;7200;52.194;9.900;2022-07-09T06:26:53;4.00;;;3.60;;
14231;SDS011;7200;52.194;9.900;2022-07-09T06:29:18;4.03;;;3.73;;
14231;SDS011;7200;52.194;9.900;2022-07-09T06:31:44;4.80;;;3.40;;
14231;SDS011;7200;52.194;9.900;2022-07-09T06:34:10;3.73;;;2.43;;
14231;SDS011;7200;52.194;9.900;2022-07-09T06:36:37;2.47;;;2.27;;
14231;SDS011;7200;52.194;9.900;2022-07-09T06:39:02;4.90;;;2.60;;
14231;SDS011;7200;52.194;9.900;2022-07-09T06:41:46;3.63;;;2.67;;
14231;SDS011;7200;52.194;9.900;2022-07-09T06:44:12;3.23;;;2.60;;
14231;SDS011;7200;52.194;9.900;2022-07-09T06:46:37;3.00;;;2.37;;
14231;SDS011;7200;52.194;9.900;2022-07-09T06:49:03;2.77;;;2.10;;
14231;SDS011;7200;52.194;9.900;2022-07-09T06:51:29;2.73;;;1.80;;
14231;SDS011;7200;52.194;9.900;2022-07-09T06:53:54;2.20;;;1.60;;
14231;SDS011;7200;52.194;9.900;2022-07-09T06:56:20;1.40;;;1.30;;
14231;SDS011;7200;52.194;9.900;2022-07-09T06:58:46;1.47;;;1.20;;
14231;SDS011;7200;52.194;9.900;2022-07-09T07:01:11;2.50;;;1.47;;
14231;SDS011;7200;52.194;9.900;2022-07-09T07:03:36;1.53;;;1.40;;
14231;SDS011;7200;52.194;9.900;2022-07-09T07:06:02;2.20;;;1.50;;
14231;SDS011;7200;52.194;9.900;2022-07-09T07:08:27;3.93;;;1.20;;
14231;SDS011;7200;52.194;9.900;2022-07-09T07:10:53;1.30;;;1.20;;
14231;SDS011;7200;52.194;9.900;2022-07-09T07:13:18;3.10;;;1.33;;
14231;SDS011;7200;52.194;9.900;2022-07-09T07:15:43;2.40;;;1.30;;
14231;SDS011;7200;52.194;9.900;2022-07-09T07:18:10;1.73;;;1.30;;
14231;SDS011;7200;52.194;9.900;2022-07-09T07:20:35;3.10;;;1.30;;
14231;SDS011;7200;52.194;9.900;2022-07-09T07:23:01;1.60;;;1.20;;
14231;SDS011;7200;52.194;9.900;2022-07-09T07:25:26;1.17;;;1.07;;
14231;SDS011;7200;52.194;9.900;2022-07-09T07:27:51;1.33;;;1.10;;
14231;SDS011;7200;52.194;9.900;2022-07-09T07:30:16;1.60;;;1.50;;
14231;SDS011;7200;52.194;9.900;2022-07-09T07:32:42;1.83;;;1.20;;
14231;SDS011;7200;52.194;9.900;2022-07-09T07:35:07;1.77;;;1.17;;
14231;SDS011;7200;52.194;9.900;2022-07-09T07:37:33;1.77;;;1.20;;
14231;SDS011;7200;52.194;9.900;2022-07-09T07:39:58;2.53;;;1.10;;
14231;SDS011;7200;52.194;9.900;2022-07-09T07:42:23;1.20;;;1.10;;
14231;SDS011;7200;52.194;9.900;2022-07-09T07:44:49;2.80;;;1.50;;
14231;SDS011;7200;52.194;9.900;2022-07-09T07:47:14;1.90;;;1.53;;
14231;SDS011;7200;52.194;9.900;2022-07-09T07:49:39;2.00;;;1.37;;
14231;SDS011;7200;52.194;9.900;2022-07-09T07:52:05;3.50;;;1.60;;
14231;SDS011;7200;52.194;9.900;2022-07-09T07:54:31;2.20;;;1.80;;
14231;SDS011;7200;52.194;9.900;2022-07-09T07:56:56;2.00;;;1.83;;
14231;SDS011;7200;52.194;9.900;2022-07-09T07:59:22;1.90;;;1.80;;
14231;SDS011;7200;52.194;9.900;2022-07-09T08:01:47;3.70;;;2.10;;
14231;SDS011;7200;52.194;9.900;2022-07-09T08:04:12;2.93;;;1.67;;
14231;SDS011;7200;52.194;9.900;2022-07-09T08:06:38;2.27;;;1.70;;
14231;SDS011;7200;52.194;9.900;2022-07-09T08:09:03;1.53;;;1.30;;
14231;SDS011;7200;52.194;9.900;2022-07-09T08:11:29;2.00;;;1.30;;
14231;SDS011;7200;52.194;9.900;2022-07-09T08:13:54;1.87;;;1.30;;
14231;SDS011;7200;52.194;9.900;2022-07-09T08:16:19;1.43;;;1.00;;
14231;SDS011;7200;52.194;9.900;2022-07-09T08:18:46;1.67;;;1.20;;
14231;SDS011;7200;52.194;9.900;2022-07-09T08:21:11;1.97;;;1.30;;
14231;SDS011;7200;52.194;9.900;2022-07-09T08:23:37;1.67;;;1.40;;
14231;SDS011;7200;52.194;9.900;2022-07-09T08:26:25;1.57;;;1.47;;
14231;SDS011;7200;52.194;9.900;2022-07-09T08:28:51;1.50;;;1.40;;
14231;SDS011;7200;52.194;9.900;2022-07-09T08:31:18;2.00;;;1.30;;
14231;SDS011;7200;52.194;9.900;2022-07-09T08:33:44;2.00;;;1.30;;
14231;SDS011;7200;52.194;9.900;2022-07-09T08:36:10;2.27;;;1.60;;
14231;SDS011;7200;52.194;9.900;2022-07-09T08:38:36;1.33;;;1.23;;
14231;SDS011;7200;52.194;9.900;2022-07-09T08:41:03;2.57;;;1.40;;
14231;SDS011;7200;52.194;9.900;2022-07-09T08:43:34;1.30;;;1.10;;
14231;SDS011;7200;52.194;9.900;2022-07-09T08:46:00;1.10;;;1.00;;
14231;SDS011;7200;52.194;9.900;2022-07-09T08:48:26;1.50;;;1.27;;
14231;SDS011;7200;52.194;9.900;2022-07-09T08:50:52;2.70;;;1.37;;
14231;SDS011;7200;52.194;9.900;2022-07-09T08:53:17;2.37;;;1.60;;
14231;SDS011;7200;52.194;9.900;2022-07-09T08:55:47;1.73;;;1.63;;
14231;SDS011;7200;52.194;9.900;2022-07-09T08:58:13;1.60;;;1.50;;
14231;SDS011;7200;52.194;9.900;2022-07-09T09:00:39;1.63;;;1.50;;
14231;SDS011;7200;52.194;9.900;2022-07-09T09:03:05;2.63;;;1.53;;
14231;SDS011;7200;52.194;9.900;2022-07-09T09:05:31;1.67;;;1.57;;
14231;SDS011;7200;52.194;9.900;2022-07-09T09:07:57;3.80;;;1.43;;
14231;SDS011;7200;52.194;9.900;2022-07-09T09:10:23;1.87;;;1.43;;
14231;SDS011;7200;52.194;9.900;2022-07-09T09:12:56;1.83;;;1.60;;
14231;SDS011;7200;52.194;9.900;2022-07-09T09:15:23;2.03;;;1.47;;
14231;SDS011;7200;52.194;9.900;2022-07-09T09:17:48;3.00;;;1.70;;
14231;SDS011;7200;52.194;9.900;2022-07-09T09:20:14;1.80;;;1.70;;
14231;SDS011;7200;52.194;9.900;2022-07-09T09:22:44;2.33;;;2.13;;
14231;SDS011;7200;52.194;9.900;2022-07-09T09:25:15;3.70;;;1.87;;
14231;SDS011;7200;52.194;9.900;2022-07-09T09:27:50;2.17;;;1.73;;
14231;SDS011;7200;52.194;9.900;2022-07-09T09:30:20;1.77;;;1.67;;
14231;SDS011;7200;52.194;9.900;2022-07-09T09:35:21;1.90;;;1.70;;
14231;SDS011;7200;52.194;9.900;2022-07-09T09:37:46;2.53;;;2.20;;
14231;SDS011;7200;52.194;9.900;2022-07-09T09:40:11;2.63;;;1.90;;
14231;SDS011;7200;52.194;9.900;2022-07-09T09:42:39;2.10;;;1.70;;
14231;SDS011;7200;52.194;9.900;2022-07-09T09:45:07;2.77;;;2.10;;
14231;SDS011;7200;52.194;9.900;2022-07-09T09:47:33;4.60;;;2.30;;
14231;SDS011;7200;52.194;9.900;2022-07-09T09:49:59;3.40;;;1.70;;
14231;SDS011;7200;52.194;9.900;2022-07-09T09:52:26;2.53;;;2.10;;
14231;SDS011;7200;52.194;9.900;2022-07-09T09:54:51;2.37;;;2.17;;
14231;SDS011;7200;52.194;9.900;2022-07-09T09:57:17;4.17;;;2.33;;
14231;SDS011;7200;52.194;9.900;2022-07-09T09:59:43;3.77;;;2.20;;
14231;SDS011;7200;52.194;9.900;2022-07-09T10:02:13;2.30;;;1.90;;
14231;SDS011;7200;52.194;9.900;2022-07-09T10:04:39;1.70;;;1.60;;
14231;SDS011;7200;52.194;9.900;2022-07-09T10:07:06;2.37;;;2.10;;
14231;SDS011;7200;52.194;9.900;2022-07-09T10:09:33;2.77;;;1.70;;
14231;SDS011;7200;52.194;9.900;2022-07-09T10:11:58;2.50;;;1.60;;
14231;SDS011;7200;52.194;9.900;2022-07-09T10:16:49;2.40;;;1.33;;
14231;SDS011;7200;52.194;9.900;2022-07-09T10:19:26;8.03;;;1.57;;
14231;SDS011;7200;52.194;9.900;2022-07-09T10:21:58;1.83;;;1.63;;
14231;SDS011;7200;52.194;9.900;2022-07-09T10:24:28;2.00;;;1.30;;
14231;SDS011;7200;52.194;9.900;2022-07-09T10:27:06;1.80;;;1.50;;
14231;SDS011;7200;52.194;9.900;2022-07-09T10:29:33;1.50;;;1.10;;
14231;SDS011;7200;52.194;9.900;2022-07-09T10:32:00;2.47;;;1.20;;
14231;SDS011;7200;52.194;9.900;2022-07-09T10:37:01;2.47;;;1.30;;
14231;SDS011;7200;52.194;9.900;2022-07-09T10:39:28;1.20;;;1.10;;
14231;SDS011;7200;52.194;9.900;2022-07-09T10:44:39;1.40;;;0.90;;
14231;SDS011;7200;52.194;9.900;2022-07-09T10:47:05;1.52;;;1.05;;
14231;SDS011;7200;52.194;9.900;2022-07-09T10:49:35;1.10;;;1.00;;
14231;SDS011;7200;52.194;9.900;2022-07-09T10:52:06;0.77;;;0.70;;
14231;SDS011;7200;52.194;9.900;2022-07-09T10:54:32;1.03;;;0.80;;
14231;SDS011;7200;52.194;9.900;2022-07-09T10:56:58;1.77;;;0.97;;
14231;SDS011;7200;52.194;9.900;2022-07-09T10:59:23;1.27;;;0.80;;
14231;SDS011;7200;52.194;9.900;2022-07-09T11:01:50;1.07;;;0.90;;
14231;SDS011;7200;52.194;9.900;2022-07-09T11:04:26;3.30;;;1.17;;
14231;SDS011;7200;52.194;9.900;2022-07-09T11:06:53;1.43;;;0.80;;
14231;SDS011;7200;52.194;9.900;2022-07-09T11:09:18;1.17;;;0.80;;
14231;SDS011;7200;52.194;9.900;2022-07-09T11:11:44;1.43;;;0.83;;
14231;SDS011;7200;52.194;9.900;2022-07-09T11:14:11;2.00;;;0.70;;
14231;SDS011;7200;52.194;9.900;2022-07-09T11:16:37;1.00;;;0.93;;
14231;SDS011;7200;52.194;9.900;2022-07-09T11:19:15;1.40;;;0.90;;
14231;SDS011;7200;52.194;9.900;2022-07-09T11:21:42;1.17;;;0.90;;
14231;SDS011;7200;52.194;9.900;2022-07-09T11:24:14;0.90;;;0.87;;
14231;SDS011;7200;52.194;9.900;2022-07-09T11:26:48;1.43;;;1.10;;
14231;SDS011;7200;52.194;9.900;2022-07-09T11:29:13;1.57;;;0.80;;
14231;SDS011;7200;52.194;9.900;2022-07-09T11:31:48;2.17;;;1.00;;
14231;SDS011;7200;52.194;9.900;2022-07-09T11:34:17;1.43;;;1.00;;
14231;SDS011;7200;52.194;9.900;2022-07-09T11:36:45;1.40;;;1.00;;
14231;SDS011;7200;52.194;9.900;2022-07-09T11:39:31;1.70;;;0.90;;
14231;SDS011;7200;52.194;9.900;2022-07-09T11:41:59;0.80;;;0.80;;
14231;SDS011;7200;52.194;9.900;2022-07-09T11:49:39;0.70;;;0.70;;
14231;SDS011;7200;52.194;9.900;2022-07-09T11:52:27;1.67;;;0.87;;
14231;SDS011;7200;52.194;9.900;2022-07-09T11:57:21;0.87;;;0.77;;
14231;SDS011;7200;52.194;9.900;2022-07-09T11:59:47;0.97;;;0.60;;
14231;SDS011;7200;52.194;9.900;2022-07-09T12:02:22;0.87;;;0.63;;
14231;SDS011;7200;52.194;9.900;2022-07-09T12:05:02;1.00;;;0.90;;
14231;SDS011;7200;52.194;9.900;2022-07-09T12:07:29;1.40;;;1.00;;
14231;SDS011;7200;52.194;9.900;2022-07-09T12:10:06;1.30;;;0.90;;
14231;SDS011;7200;52.194;9.900;2022-07-09T12:12:34;0.73;;;0.73;;
14231;SDS011;7200;52.194;9.900;2022-07-09T12:15:00;1.17;;;0.70;;
14231;SDS011;7200;52.194;9.900;2022-07-09T12:17:26;1.07;;;0.67;;
14231;SDS011;7200;52.194;9.900;2022-07-09T12:19:53;0.73;;;0.60;;
14231;SDS011;7200;52.194;9.900;2022-07-09T12:22:19;0.80;;;0.80;;
14231;SDS011;7200;52.194;9.900;2022-07-09T12:24:45;1.80;;;0.87;;
14231;SDS011;7200;52.194;9.900;2022-07-09T12:27:12;0.73;;;0.73;;
14231;SDS011;7200;52.194;9.900;2022-07-09T12:29:38;0.70;;;0.70;;
14231;SDS011;7200;52.194;9.900;2022-07-09T12:32:03;0.87;;;0.87;;
14231;SDS011;7200;52.194;9.900;2022-07-09T12:34:29;2.20;;;0.90;;
14231;SDS011;7200;52.194;9.900;2022-07-09T12:36:55;0.70;;;0.70;;
14231;SDS011;7200;52.194;9.900;2022-07-09T12:39:20;0.60;;;0.60;;
14231;SDS011;7200;52.194;9.900;2022-07-09T12:41:45;1.27;;;0.60;;
14231;SDS011;7200;52.194;9.900;2022-07-09T12:44:11;0.60;;;0.60;;
14231;SDS011;7200;52.194;9.900;2022-07-09T12:46:36;0.53;;;0.40;;
14231;SDS011;7200;52.194;9.900;2022-07-09T12:49:02;0.70;;;0.70;;
14231;SDS011;7200;52.194;9.900;2022-07-09T12:51:27;0.60;;;0.60;;
14231;SDS011;7200;52.194;9.900;2022-07-09T12:53:52;0.70;;;0.57;;
14231;SDS011;7200;52.194;9.900;2022-07-09T12:56:18;0.73;;;0.73;;
14231;SDS011;7200;52.194;9.900;2022-07-09T12:58:43;1.30;;;0.70;;
14231;SDS011;7200;52.194;9.900;2022-07-09T13:01:09;0.80;;;0.57;;
14231;SDS011;7200;52.194;9.900;2022-07-09T13:03:34;1.33;;;0.90;;
14231;SDS011;7200;52.194;9.900;2022-07-09T13:06:00;0.87;;;0.87;;
14231;SDS011;7200;52.194;9.900;2022-07-09T13:08:25;0.63;;;0.63;;
14231;SDS011;7200;52.194;9.900;2022-07-09T13:10:51;2.03;;;0.70;;
14231;SDS011;7200;52.194;9.900;2022-07-09T13:13:16;1.23;;;0.50;;
14231;SDS011;7200;52.194;9.900;2022-07-09T13:15:42;3.20;;;0.80;;
14231;SDS011;7200;52.194;9.900;2022-07-09T13:18:08;0.70;;;0.70;;
14231;SDS011;7200;52.194;9.900;2022-07-09T13:20:33;1.63;;;0.90;;
14231;SDS011;7200;52.194;9.900;2022-07-09T13:22:58;2.47;;;0.80;;
14231;SDS011;7200;52.194;9.900;2022-07-09T13:25:23;0.87;;;0.87;;
14231;SDS011;7200;52.194;9.900;2022-07-09T13:27:49;1.10;;;0.93;;
14231;SDS011;7200;52.194;9.900;2022-07-09T13:30:14;1.30;;;1.20;;
14231;SDS011;7200;52.194;9.900;2022-07-09T13:32:45;3.50;;;2.20;;
14231;SDS011;7200;52.194;9.900;2022-07-09T13:35:11;3.47;;;2.30;;
14231;SDS011;7200;52.194;9.900;2022-07-09T13:37:36;2.60;;;1.97;;
14231;SDS011;7200;52.194;9.900;2022-07-09T13:40:02;2.60;;;2.40;;
14231;SDS011;7200;52.194;9.900;2022-07-09T13:42:28;3.10;;;2.30;;
14231;SDS011;7200;52.194;9.900;2022-07-09T13:44:53;3.03;;;2.63;;
14231;SDS011;7200;52.194;9.900;2022-07-09T13:47:19;2.10;;;1.90;;
14231;SDS011;7200;52.194;9.900;2022-07-09T13:49:44;2.83;;;2.20;;
14231;SDS011;7200;52.194;9.900;2022-07-09T13:52:09;2.40;;;2.20;;
14231;SDS011;7200;52.194;9.900;2022-07-09T13:54:35;2.60;;;2.40;;
14231;SDS011;7200;52.194;9.900;2022-07-09T13:57:00;2.40;;;2.20;;
14231;SDS011;7200;52.194;9.900;2022-07-09T13:59:26;2.80;;;2.60;;
14231;SDS011;7200;52.194;9.900;2022-07-09T14:01:52;3.17;;;2.37;;
14231;SDS011;7200;52.194;9.900;2022-07-09T14:04:17;2.73;;;2.50;;
14231;SDS011;7200;52.194;9.900;2022-07-09T14:06:43;4.23;;;2.30;;
14231;SDS011;7200;52.194;9.900;2022-07-09T14:09:08;1.60;;;1.50;;
14231;SDS011;7200;52.194;9.900;2022-07-09T14:11:33;1.57;;;1.47;;
14231;SDS011;7200;52.194;9.900;2022-07-09T14:13:59;3.40;;;1.80;;
14231;SDS011;7200;52.194;9.900;2022-07-09T14:16:25;1.77;;;1.67;;
14231;SDS011;7200;52.194;9.900;2022-07-09T14:18:50;1.47;;;1.37;;
14231;SDS011;7200;52.194;9.900;2022-07-09T14:21:16;1.73;;;1.63;;
14231;SDS011;7200;52.194;9.900;2022-07-09T14:23:42;2.07;;;1.30;;
14231;SDS011;7200;52.194;9.900;2022-07-09T14:26:12;1.80;;;1.40;;
14231;SDS011;7200;52.194;9.900;2022-07-09T14:28:38;2.53;;;1.50;;
14231;SDS011;7200;52.194;9.900;2022-07-09T14:31:04;1.73;;;1.30;;
14231;SDS011;7200;52.194;9.900;2022-07-09T14:33:29;1.50;;;1.40;;
14231;SDS011;7200;52.194;9.900;2022-07-09T14:35:54;2.40;;;1.63;;
14231;SDS011;7200;52.194;9.900;2022-07-09T14:38:20;1.43;;;1.20;;
14231;SDS011;7200;52.194;9.900;2022-07-09T14:40:45;3.23;;;1.80;;
14231;SDS011;7200;52.194;9.900;2022-07-09T14:43:10;1.97;;;1.57;;
14231;SDS011;7200;52.194;9.900;2022-07-09T14:45:36;1.70;;;1.17;;
14231;SDS011;7200;52.194;9.900;2022-07-09T14:48:01;1.13;;;0.80;;
14231;SDS011;7200;52.194;9.900;2022-07-09T14:50:28;1.27;;;0.80;;
14231;SDS011;7200;52.194;9.900;2022-07-09T14:55:36;1.53;;;1.07;;
14231;SDS011;7200;52.194;9.900;2022-07-09T14:58:02;0.87;;;0.87;;
14231;SDS011;7200;52.194;9.900;2022-07-09T15:00:27;1.30;;;0.73;;
14231;SDS011;7200;52.194;9.900;2022-07-09T15:02:53;1.73;;;0.97;;
14231;SDS011;7200;52.194;9.900;2022-07-09T15:05:18;1.20;;;0.90;;
14231;SDS011;7200;52.194;9.900;2022-07-09T15:07:43;1.03;;;0.90;;
14231;SDS011;7200;52.194;9.900;2022-07-09T15:10:09;2.63;;;0.90;;
14231;SDS011;7200;52.194;9.900;2022-07-09T15:12:34;2.33;;;1.00;;
14231;SDS011;7200;52.194;9.900;2022-07-09T15:15:00;2.30;;;1.00;;